メインページ
METAR-TAF:

METAR-TAF

空港 :

Grande Prairie, アルバータ州, カナダ

緯度: 55-11N, 経度: 118-53W, 海抜: 666m

現時点の気象観測

当レポートは22分前の02:00(UTC)に作成
西の風 8kt
気温 -2°C
湿度 80%
気圧 1006 hPa
視程: 40.2km
高度6300ftの千切れ雲あり
高度7500ftの千切れ雲あり

METAR: CYQU 210200Z 28008KT 25SM BKN063 BKN075 M02/M05 A2971 RMK SC5AC2 SLP103

時間: 19:22 (02:22 UTC)

予報

当レポートは1時間44分前の00:38(UTC)に作成
予報は21日の 01時(UTC)から 21日の 13時(UTC)まで有効
西の風 12kt
視程: 10km
高度8000ftの千切れ雲あり
21日の 0300時(UTC)から
西の風 12kt
視程: 10km
高度2000ftの雲は散在している
高度4000ftの曇り
21日の 03時(UTC)から 21日の 09時(UTC)まで一時的に
視程: 4.8km
高度2000ftの曇り
小雪, 靄
21日の 04時(UTC)から 21日の 06時(UTC)まで徐々に
北/北東の風 6kt
21日の 0900時(UTC)から
東/北東の風 5kt
視程: 10km
高度800ftの雲は散在している
高度1200ftの曇り
21日の 09時(UTC)から 21日の 13時(UTC)まで一時的に
視程: 3.2km
高度800ftの曇り
小雪, 靄
確率 30%
21日の 10時(UTC)から 21日の 13時(UTC)まで
視程: 1.2km
高度400ftの曇り
小雪, 靄

TAF: CYQU 210038Z 2101/2113 26012KT P6SM BKN080 FM210300 26012KT P6SM SCT020 OVC040 TEMPO 2103/2109 3SM -SN BR OVC020 BECMG 2104/2106 03006KT FM210900 06005KT P6SM SCT008 OVC012 TEMPO 2109/2113 2SM -SN BR OVC008 PROB30 2110/2113 3/4SM -SN BR OVC004 RMK NXT FCST BY 210700Z

4,000以上の空港の気象観測と天気予報(METAR報とTAF報)

利用可能な観測所は地図上に黄色い丸と赤い丸で示す。

丸の上にカーソルを重ねると観測所名を参照できる。

次にクリックすると気象観測と天気予報を参照できる。

マップの切り替え:黒色「×」印の緑ボタンをクリックして拡大、「-」印の緑ボタンをクリックして縮小、緑色の三角印をクリックして隣りの地図に切り替え


METAR-TAF: